Time;durP1;ratioP1;P1;durP2;ratioP2;P2;SDS_P1;SDS_P2;PMS_P1;PMS_P2;Temp;Humidity;BMP_temperature;BMP_pressure;BME280_temperature;BME280_humidity;BME280_pressure;Samples;Min_cycle;Max_cycle;Signal;HPM_P1;HPM_P2
2024/04/13 00:01:01;;;;;;;0.20;0.20;;;;;;;12.12;100.00;100597.00;5459723;26;20025;-58
2024/04/13 00:03:30;;;;;;;0.13;0.13;;;;;;;12.08;100.00;100599.28;5453519;26;19999;-58
2024/04/13 00:06:02;;;;;;;0.20;0.20;;;;;;;12.09;100.00;100600.97;5450481;26;19998;-58
2024/04/13 00:08:28;;;;;;;0.20;0.20;;;;;;;12.05;100.00;100600.56;5455564;26;20021;-58
2024/04/13 00:11:02;;;;;;;0.20;0.20;;;;;;;11.97;100.00;100592.78;5447667;26;20006;-58
2024/04/13 00:13:30;;;;;;;0.20;0.20;;;;;;;11.89;100.00;100594.91;5459016;26;20117;-58
2024/04/13 00:15:59;;;;;;;0.20;0.20;;;;;;;11.90;100.00;100585.81;5464550;26;20571;-59
2024/04/13 00:18:25;;;;;;;0.20;0.20;;;;;;;11.75;100.00;100584.22;5464077;26;20082;-58
2024/04/13 00:20:56;;;;;;;0.20;0.20;;;;;;;11.71;100.00;100580.34;5460735;26;20057;-58
2024/04/13 00:23:25;;;;;;;0.20;0.20;;;;;;;11.74;100.00;100579.88;5457290;26;20017;-58
2024/04/13 00:25:56;;;;;;;0.20;0.20;;;;;;;11.63;100.00;100577.88;5446684;26;20041;-58
2024/04/13 00:28:22;;;;;;;0.20;0.20;;;;;;;11.57;100.00;100566.16;5454675;26;20006;-58
2024/04/13 00:30:51;;;;;;;0.17;0.17;;;;;;;11.57;100.00;100590.31;5447450;26;20006;-58
2024/04/13 00:33:18;;;;;;;0.20;0.20;;;;;;;11.69;100.00;100590.47;5456570;26;20006;-58
2024/04/13 00:35:49;;;;;;;0.20;0.20;;;;;;;11.59;100.00;100580.19;5451156;26;20003;-58
2024/04/13 00:38:16;;;;;;;0.20;0.20;;;;;;;11.49;100.00;100584.41;5459800;26;20070;-58
2024/04/13 00:40:48;;;;;;;0.20;0.20;;;;;;;11.45;100.00;100584.81;5443999;26;20828;-59
2024/04/13 00:43:14;;;;;;;0.20;0.20;;;;;;;11.39;100.00;100579.50;5458162;26;20018;-58
2024/04/13 00:45:45;;;;;;;0.20;0.20;;;;;;;11.23;100.00;100570.06;5448519;26;20388;-58
2024/04/13 00:48:11;;;;;;;0.10;0.10;;;;;;;11.25;100.00;100562.63;5461890;26;20404;-58
2024/04/13 00:50:40;;;;;;;0.20;0.20;;;;;;;11.31;100.00;100569.81;5449931;26;20015;-58
2024/04/13 00:53:07;;;;;;;0.20;0.20;;;;;;;11.39;100.00;100568.75;5450956;26;20014;-58
2024/04/13 00:55:36;;;;;;;0.20;0.20;;;;;;;11.38;100.00;100565.25;5451240;26;20783;-59
2024/04/13 00:58:05;;;;;;;0.20;0.20;;;;;;;11.45;100.00;100562.50;5457247;26;20091;-58
2024/04/13 01:00:34;;;;;;;0.20;0.20;;;;;;;11.45;100.00;100560.63;5459116;26;20900;-58
2024/04/13 01:03:01;;;;;;;0.25;0.25;;;;;;;11.45;100.00;100555.28;5465852;26;20117;-58
2024/04/13 01:05:30;;;;;;;0.20;0.20;;;;;;;11.42;100.00;100558.38;5447150;26;20348;-58
2024/04/13 01:08:00;;;;;;;0.10;0.10;;;;;;;11.42;100.00;100549.53;5448371;26;20447;-58
2024/04/13 01:10:29;;;;;;;0.20;0.20;;;;;;;11.44;100.00;100534.84;5463868;26;20078;-58
2024/04/13 01:12:55;;;;;;;0.17;0.17;;;;;;;11.53;100.00;100540.78;5461266;26;20014;-58
2024/04/13 01:15:27;;;;;;;0.20;0.20;;;;;;;11.60;100.00;100543.41;5454556;26;20026;-58
2024/04/13 01:17:57;;;;;;;0.20;0.20;;;;;;;11.55;100.00;100537.88;5447311;26;19998;-58
2024/04/13 01:20:30;;;;;;;0.20;0.20;;;;;;;11.60;100.00;100543.41;5449425;26;19994;-58
2024/04/13 01:22:56;;;;;;;0.20;0.20;;;;;;;11.54;100.00;100542.44;5459692;26;20014;-58
2024/04/13 01:25:27;;;;;;;0.20;0.20;;;;;;;11.66;100.00;100546.06;5461576;26;20051;-58
2024/04/13 01:27:54;;;;;;;0.20;0.20;;;;;;;11.55;100.00;100545.94;5454302;26;20018;-58
2024/04/13 01:30:25;;;;;;;0.20;0.20;;;;;;;11.47;100.00;100554.25;5447013;26;20010;-57
2024/04/13 01:32:51;;;;;;;;;;;;;;;11.42;100.00;100553.03;5458456;26;20002;-57
2024/04/13 01:35:20;;;;;;;0.10;0.10;;;;;;;11.33;100.00;100558.84;5468040;26;19958;-58
2024/04/13 01:37:47;;;;;;;0.20;0.20;;;;;;;11.25;100.00;100562.63;5457521;26;20018;-58
2024/04/13 01:40:15;;;;;;;0.20;0.20;;;;;;;11.18;100.00;100561.81;5460343;26;20017;-57
2024/04/13 01:42:46;;;;;;;0.20;0.20;;;;;;;11.24;100.00;100550.25;5455899;26;20015;-57
2024/04/13 01:45:15;;;;;;;0.20;0.20;;;;;;;11.20;100.00;100551.69;5458125;26;20365;-58
2024/04/13 01:47:41;;;;;;;0.20;0.20;;;;;;;11.07;100.00;100559.81;5461873;26;20530;-57
2024/04/13 01:50:11;;;;;;;0.17;0.17;;;;;;;11.12;100.00;100554.63;5458980;26;20006;-58
2024/04/13 01:52:37;;;;;;;0.20;0.20;;;;;;;11.02;100.00;100550.53;5460384;26;20070;-57
2024/04/13 01:55:06;;;;;;;0.20;0.20;;;;;;;11.12;100.00;100551.94;5459866;26;20022;-59
2024/04/13 01:57:33;;;;;;;0.20;0.20;;;;;;;11.11;100.00;100547.63;5455463;26;20453;-57
2024/04/13 02:00:06;;;;;;;0.10;0.10;;;;;;;11.13;100.00;100543.69;5459663;26;20021;-57
2024/04/13 02:02:32;;;;;;;0.30;0.30;;;;;;;11.14;100.00;100544.53;5456903;26;20090;-59
2024/04/13 02:05:02;;;;;;;0.20;0.20;;;;;;;11.21;100.00;100545.31;5461753;26;20002;-57
2024/04/13 02:07:29;;;;;;;0.28;0.28;;;;;;;11.08;100.00;100540.00;5455026;26;19998;-57
2024/04/13 02:10:01;;;;;;;0.15;0.15;;;;;;;11.27;100.00;100544.44;5446212;26;20050;-57
2024/04/13 02:12:27;;;;;;;0.20;0.20;;;;;;;11.21;100.00;100548.81;5468370;26;20017;-58
2024/04/13 02:14:57;;;;;;;0.20;0.20;;;;;;;11.09;100.00;100541.66;5450055;26;20021;-58
2024/04/13 02:17:27;;;;;;;0.17;0.17;;;;;;;11.09;100.00;100544.34;5444737;26;20072;-58
2024/04/13 02:19:56;;;;;;;0.20;0.20;;;;;;;11.07;100.00;100541.84;5454225;26;20834;-57
2024/04/13 02:22:23;;;;;;;0.20;0.20;;;;;;;10.99;100.00;100542.94;5460677;26;20002;-58
2024/04/13 02:24:55;;;;;;;0.20;0.20;;;;;;;11.05;100.00;100538.56;5463210;26;20002;-59
2024/04/13 02:27:21;;;;;;;0.20;0.20;;;;;;;11.00;100.00;100538.38;5459191;26;20007;-58
2024/04/13 02:29:50;;;;;;;0.20;0.20;;;;;;;10.98;100.00;100530.56;5459221;26;20014;-58
2024/04/13 02:32:16;;;;;;;0.20;0.20;;;;;;;10.88;100.00;100529.34;5460044;26;20007;-58
2024/04/13 02:34:47;;;;;;;0.20;0.20;;;;;;;10.99;100.00;100534.88;5456351;26;20459;-57
2024/04/13 02:37:14;;;;;;;0.20;0.20;;;;;;;11.04;100.00;100536.94;5456456;26;20701;-58
2024/04/13 02:39:43;;;;;;;0.20;0.20;;;;;;;10.99;100.00;100537.56;5443903;26;20018;-58
2024/04/13 02:42:10;;;;;;;0.28;0.28;;;;;;;10.95;100.00;100530.97;5450586;26;20002;-58
2024/04/13 02:44:39;;;;;;;0.20;0.20;;;;;;;11.09;100.00;100533.59;5461894;26;19999;-58
2024/04/13 02:47:05;;;;;;;0.30;0.30;;;;;;;11.10;100.00;100540.59;5460833;26;20136;-58
2024/04/13 02:49:34;;;;;;;0.20;0.20;;;;;;;11.20;100.00;100540.97;5450644;26;20099;-57
2024/04/13 02:52:06;;;;;;;0.20;0.20;;;;;;;10.97;100.00;100539.63;5450361;26;19998;-57
2024/04/13 02:54:35;;;;;;;0.20;0.20;;;;;;;11.06;100.00;100536.69;5450218;26;20046;-58
2024/04/13 02:57:04;;;;;;;0.20;0.20;;;;;;;11.10;100.00;100529.88;5442321;26;20071;-58
2024/04/13 02:59:35;;;;;;;0.20;0.20;;;;;;;10.86;100.00;100526.91;5452789;26;20473;-57
2024/04/13 03:02:04;;;;;;;0.20;0.20;;;;;;;10.72;100.00;100517.25;5451773;26;20532;-58
2024/04/13 03:04:34;;;;;;;0.20;0.20;;;;;;;10.78;100.00;100519.91;5455408;26;19994;-58
2024/04/13 03:07:03;;;;;;;0.20;0.20;;;;;;;10.66;100.00;100518.06;5448734;26;20094;-58
2024/04/13 03:09:32;;;;;;;0.20;0.20;;;;;;;10.63;100.00;100513.16;5457489;26;20039;-58
2024/04/13 03:12:01;;;;;;;0.20;0.20;;;;;;;10.70;100.00;100516.63;5453749;26;20006;-58
2024/04/13 03:14:31;;;;;;;0.20;0.20;;;;;;;10.75;100.00;100519.50;5443563;26;19999;-58
2024/04/13 03:17:00;;;;;;;0.30;0.30;;;;;;;10.76;100.00;100515.81;5452133;26;20697;-58
2024/04/13 03:19:28;;;;;;;0.20;0.20;;;;;;;10.76;100.00;100521.16;5460109;26;20394;-58
2024/04/13 03:21:55;;;;;;;0.20;0.20;;;;;;;10.96;100.00;100521.09;5463477;26;20007;-57
2024/04/13 03:24:26;;;;;;;0.25;0.25;;;;;;;10.80;100.00;100506.28;5452078;26;19998;-57
2024/04/13 03:26:52;;;;;;;0.20;0.20;;;;;;;10.74;100.00;100505.28;5460028;26;20686;-57
2024/04/13 03:29:21;;;;;;;0.20;0.20;;;;;;;10.75;100.00;100498.03;5452586;26;20300;-57
2024/04/13 03:31:47;;;;;;;0.22;0.22;;;;;;;10.86;100.00;100491.19;5464156;26;20817;-57
2024/04/13 03:34:17;;;;;;;0.20;0.20;;;;;;;10.82;100.00;100498.84;5459140;26;20741;-57
2024/04/13 03:36:44;;;;;;;0.30;0.30;;;;;;;10.89;100.00;100499.63;5462907;26;20019;-57
2024/04/13 03:39:13;;;;;;;0.20;0.20;;;;;;;10.80;100.00;100506.28;5460608;26;20002;-57
2024/04/13 03:41:45;;;;;;;0.30;0.30;;;;;;;10.88;100.00;100505.22;5445013;26;20010;-57
2024/04/13 03:44:11;;;;;;;0.20;0.20;;;;;;;10.92;100.00;100512.63;5459059;26;20064;-58
2024/04/13 03:46:40;;;;;;;0.20;0.20;;;;;;;10.81;100.00;100510.63;5442316;26;20014;-58
2024/04/13 03:49:09;;;;;;;0.20;0.20;;;;;;;10.71;100.00;100507.56;5458590;26;20017;-58
2024/04/13 03:51:38;;;;;;;0.20;0.20;;;;;;;10.60;100.00;100494.81;5454345;26;20091;-58
2024/04/13 03:54:04;;;;;;;0.20;0.20;;;;;;;10.51;100.00;100492.38;5451086;26;20018;-57
2024/04/13 03:56:33;;;;;;;0.20;0.20;;;;;;;10.49;100.00;100499.78;5453455;26;20010;-57
2024/04/13 03:59:03;;;;;;;0.20;0.20;;;;;;;10.51;100.00;100502.28;5450796;26;20002;-58
2024/04/13 04:01:32;;;;;;;0.20;0.20;;;;;;;10.45;100.00;100495.88;5452872;26;20389;-58
2024/04/13 04:03:58;;;;;;;0.20;0.20;;;;;;;10.31;100.00;100491.59;5465461;26;20021;-57
2024/04/13 04:06:27;;;;;;;0.20;0.20;;;;;;;10.32;100.00;100483.34;5463351;26;20013;-58
2024/04/13 04:08:53;;;;;;;0.20;0.20;;;;;;;10.40;100.00;100490.31;5464675;26;20011;-58
2024/04/13 04:11:25;;;;;;;0.20;0.20;;;;;;;10.33;100.00;100498.41;5433876;26;20013;-57
2024/04/13 04:13:52;;;;;;;0.22;0.22;;;;;;;10.34;100.00;100485.81;5455978;26;20021;-58
2024/04/13 04:16:24;;;;;;;0.20;0.20;;;;;;;10.51;100.00;100494.22;5458103;26;20401;-58
2024/04/13 04:18:50;;;;;;;0.30;0.30;;;;;;;10.29;100.00;100488.31;5456425;26;20006;-57
2024/04/13 04:21:19;;;;;;;0.20;0.20;;;;;;;10.29;100.00;100488.31;5459289;26;20021;-57
2024/04/13 04:23:45;;;;;;;0.20;0.20;;;;;;;10.27;100.00;100496.50;5459532;26;20697;-58
2024/04/13 04:26:14;;;;;;;0.25;0.25;;;;;;;10.29;100.00;100488.31;5458706;26;19998;-57
2024/04/13 04:28:40;;;;;;;0.20;0.20;;;;;;;10.28;100.00;100497.34;5446486;26;20018;-57
2024/04/13 04:31:14;;;;;;;0.20;0.20;;;;;;;10.28;100.00;100500.88;5458716;26;20006;-58
2024/04/13 04:33:43;;;;;;;0.30;0.30;;;;;;;10.32;100.00;100498.59;5449804;26;20003;-57
2024/04/13 04:36:14;;;;;;;0.20;0.20;;;;;;;10.33;100.00;100510.94;5467505;26;20448;-58
2024/04/13 04:38:41;;;;;;;0.20;0.20;;;;;;;10.33;100.00;100509.13;5460931;26;20017;-57
2024/04/13 04:41:10;;;;;;;0.22;0.22;;;;;;;10.40;100.00;100500.22;5451967;26;20002;-58
2024/04/13 04:43:36;;;;;;;0.20;0.20;;;;;;;10.34;100.00;100496.53;5456411;26;20020;-58
2024/04/13 04:46:07;;;;;;;0.20;0.20;;;;;;;10.33;100.00;100501.09;5447159;26;20013;-58
2024/04/13 04:48:34;;;;;;;0.20;0.20;;;;;;;10.46;100.00;100499.38;5457305;26;20393;-58
2024/04/13 04:51:09;;;;;;;0.20;0.20;;;;;;;10.52;100.00;100506.59;5452565;26;20430;-57
2024/04/13 04:53:40;;;;;;;0.25;0.25;;;;;;;10.58;100.00;100498.53;5464078;26;20325;-58
2024/04/13 04:56:06;;;;;;;0.20;0.20;;;;;;;10.60;100.00;100500.16;5465704;26;20002;-58
2024/04/13 04:58:35;;;;;;;0.20;0.20;;;;;;;10.86;100.00;100500.06;5451357;26;20006;-58
2024/04/13 05:01:01;;;;;;;0.20;0.20;;;;;;;10.87;100.00;100507.06;5453734;26;20003;-58
2024/04/13 05:03:30;;;;;;;0.20;0.20;;;;;;;10.75;100.00;100508.78;5446014;26;20007;-57
2024/04/13 05:05:57;;;;;;;0.20;0.20;;;;;;;11.05;100.00;100506.38;5449989;26;20002;-58
2024/04/13 05:08:29;;;;;;;0.20;0.20;;;;;;;11.05;100.00;100516.28;5452518;26;20031;-57
2024/04/13 05:10:58;;;;;;;0.30;0.30;;;;;;;10.93;100.00;100514.28;5450933;26;20002;-57
2024/04/13 05:13:28;;;;;;;0.20;0.20;;;;;;;10.80;100.00;100517.81;5459272;26;20011;-58
2024/04/13 05:15:59;;;;;;;0.30;0.30;;;;;;;11.02;100.00;100521.03;5452108;26;20294;-57
2024/04/13 05:18:29;;;;;;;0.30;0.30;;;;;;;11.51;100.00;100517.88;5462449;26;19994;-60
2024/04/13 05:20:56;;;;;;;0.20;0.20;;;;;;;12.13;100.00;100516.19;5444028;26;19999;-58
2024/04/13 05:23:27;;;;;;;0.30;0.30;;;;;;;11.98;100.00;100512.97;5455071;26;20006;-58
2024/04/13 05:25:56;;;;;;;0.20;0.20;;;;;;;12.97;100.00;100516.47;5454080;26;20021;-58
2024/04/13 05:28:26;;;;;;;0.30;0.30;;;;;;;14.55;100.00;100526.88;5461660;26;20014;-58
2024/04/13 05:30:56;;;;;;;0.23;0.23;;;;;;;14.77;100.00;100535.16;5455153;26;19999;-58
2024/04/13 05:33:25;;;;;;;;;;;;;;;15.59;98.38;100540.25;5458378;26;20547;-58
2024/04/13 05:35:51;;;;;;;0.20;0.20;;;;;;;15.94;93.50;100533.81;5454293;26;19931;-58
2024/04/13 05:38:20;;;;;;;0.10;0.10;;;;;;;15.77;94.08;100536.53;5449606;26;20646;-58
2024/04/13 05:40:49;;;;;;;0.20;0.20;;;;;;;15.41;97.16;100540.47;5450780;26;20025;-58
2024/04/13 05:43:20;;;;;;;0.10;0.10;;;;;;;16.01;93.74;100541.78;5448265;26;20015;-58
2024/04/13 05:45:46;;;;;;;0.20;0.20;;;;;;;16.22;93.47;100543.72;5449964;26;20779;-57
2024/04/13 05:48:15;;;;;;;0.20;0.20;;;;;;;15.76;94.66;100540.31;5452215;26;20002;-57
2024/04/13 05:50:41;;;;;;;0.20;0.20;;;;;;;16.41;90.76;100548.88;5447115;26;20013;-57
2024/04/13 05:53:10;;;;;;;0.10;0.10;;;;;;;14.48;100.00;100553.97;5459302;26;20432;-60
2024/04/13 05:55:38;;;;;;;0.10;0.10;;;;;;;14.15;100.00;100549.97;5455041;26;20051;-59
2024/04/13 05:58:09;;;;;;;0.10;0.10;;;;;;;12.82;100.00;100549.16;5455195;26;20538;-59
2024/04/13 06:00:36;;;;;;;0.10;0.10;;;;;;;13.76;100.00;100551.44;5439953;26;20003;-59
2024/04/13 06:03:05;;;;;;;0.20;0.20;;;;;;;14.49;100.00;100547.50;5452624;26;20018;-59
2024/04/13 06:05:31;;;;;;;0.10;0.10;;;;;;;13.08;100.00;100544.47;5459845;26;20862;-59
2024/04/13 06:08:00;;;;;;;0.20;0.20;;;;;;;13.66;100.00;100546.63;5446509;26;19998;-59
2024/04/13 06:10:29;;;;;;;0.30;0.30;;;;;;;14.37;100.00;100546.69;5460813;26;20441;-59
2024/04/13 06:12:58;;;;;;;0.20;0.20;;;;;;;15.93;97.03;100548.41;5460890;26;19995;-59
2024/04/13 06:15:27;;;;;;;0.20;0.20;;;;;;;16.12;95.49;100551.69;5445379;26;20496;-59
2024/04/13 06:17:57;;;;;;;0.10;0.10;;;;;;;15.84;97.02;100550.69;5461728;26;20441;-59
2024/04/13 06:20:23;;;;;;;;;;;;;;;13.94;100.00;100554.03;5451605;26;20370;-58
2024/04/13 06:22:52;;;;;;;0.20;0.20;;;;;;;14.13;100.00;100549.38;5465982;26;20254;-59
2024/04/13 06:25:18;;;;;;;0.20;0.20;;;;;;;15.24;100.00;100543.94;5462866;26;19998;-59
2024/04/13 06:27:47;;;;;;;0.20;0.20;;;;;;;15.08;100.00;100550.13;5444803;26;20734;-59
2024/04/13 06:30:14;;;;;;;0.20;0.20;;;;;;;14.33;100.00;100546.34;5458381;26;19998;-59
2024/04/13 06:32:45;;;;;;;0.20;0.20;;;;;;;15.70;100.00;100534.00;5443225;26;20016;-59
2024/04/13 06:35:11;;;;;;;0.20;0.20;;;;;;;16.28;97.08;100534.63;5451377;26;20010;-60
2024/04/13 06:37:40;;;;;;;0.20;0.20;;;;;;;16.83;89.14;100535.66;5469503;26;20082;-60
2024/04/13 06:40:07;;;;;;;0.13;0.13;;;;;;;16.91;89.94;100532.50;5447025;26;20024;-60
2024/04/13 06:42:36;;;;;;;0.10;0.10;;;;;;;15.46;96.88;100540.56;5460653;26;20537;-59
2024/04/13 06:45:03;;;;;;;0.15;0.15;;;;;;;16.75;92.05;100526.06;5462277;26;20025;-59
2024/04/13 06:47:33;;;;;;;0.10;0.10;;;;;;;16.34;94.51;100527.41;5464846;26;20002;-60
2024/04/13 06:50:05;;;;;;;0.10;0.10;;;;;;;16.87;92.53;100528.66;5455753;26;20344;-60
2024/04/13 06:52:34;;;;;;;0.20;0.20;;;;;;;16.01;95.41;100529.06;5461930;26;20333;-60
2024/04/13 06:55:03;;;;;;;0.15;0.15;;;;;;;16.91;89.19;100527.09;5457392;26;20042;-57
2024/04/13 06:57:32;;;;;;;0.10;0.10;;;;;;;15.95;93.06;100532.78;5452536;26;20070;-59
2024/04/13 06:59:58;;;;;;;0.10;0.10;;;;;;;16.94;93.38;100526.56;5453857;26;20017;-59
2024/04/13 07:02:27;;;;;;;0.10;0.10;;;;;;;16.28;95.00;100529.22;5460392;26;20009;-59
2024/04/13 07:04:57;;;;;;;0.10;0.10;;;;;;;15.47;96.78;100529.50;5461445;26;20006;-59
2024/04/13 07:07:28;;;;;;;0.10;0.10;;;;;;;15.87;98.17;100527.75;5463608;26;20067;-59
2024/04/13 07:09:57;;;;;;;0.10;0.10;;;;;;;15.76;100.00;100520.56;5452011;26;20501;-59
2024/04/13 07:12:26;;;;;;;0.20;0.20;;;;;;;15.25;99.31;100515.88;5453406;26;20015;-59
2024/04/13 07:14:53;;;;;;;0.10;0.10;;;;;;;16.66;95.38;100508.63;5481651;26;20018;-59
2024/04/13 07:17:22;;;;;;;0.10;0.10;;;;;;;16.34;99.37;100509.28;5455001;26;20002;-57
2024/04/13 07:19:48;;;;;;;0.10;0.10;;;;;;;15.92;100.00;100503.50;5458037;26;20022;-59
2024/04/13 07:22:17;;;;;;;0.10;0.10;;;;;;;15.33;100.00;100503.88;5461854;26;20106;-59
2024/04/13 07:24:46;;;;;;;0.10;0.10;;;;;;;15.81;100.00;100497.13;5447633;26;20021;-59
2024/04/13 07:27:15;;;;;;;0.10;0.10;;;;;;;15.90;99.25;100501.06;5457058;26;20047;-58
2024/04/13 07:29:41;;;;;;;0.10;0.10;;;;;;;15.95;100.00;100492.22;5455928;26;20006;-58
2024/04/13 07:32:10;;;;;;;0.10;0.10;;;;;;;15.39;100.00;100488.56;5441007;26;20329;-59
2024/04/13 07:34:37;;;;;;;0.15;0.15;;;;;;;15.02;100.00;100499.75;5454019;26;20606;-58
2024/04/13 07:37:06;;;;;;;0.10;0.10;;;;;;;16.00;100.00;100492.31;5454634;26;20087;-58
2024/04/13 07:39:32;;;;;;;0.10;0.10;;;;;;;16.63;95.81;100498.28;5450648;26;20014;-58
2024/04/13 07:42:04;;;;;;;0.20;0.20;;;;;;;17.30;94.39;100497.19;5462952;26;19998;-58
2024/04/13 07:44:30;;;;;;;0.10;0.10;;;;;;;17.98;87.08;100493.97;5452576;26;20002;-58
2024/04/13 07:46:59;;;;;;;0.10;0.10;;;;;;;17.94;88.48;100490.16;5459768;26;20374;-58
2024/04/13 07:49:26;;;;;;;0.10;0.10;;;;;;;16.25;98.96;100491.00;5462367;26;20443;-58
2024/04/13 07:51:55;;;;;;;0.10;0.10;;;;;;;17.70;91.49;100495.91;5451235;26;20796;-58
2024/04/13 07:54:21;;;;;;;0.10;0.10;;;;;;;17.15;96.63;100497.03;5440246;26;21794;-59
2024/04/13 07:56:50;;;;;;;0.10;0.10;;;;;;;17.13;94.11;100496.47;5451225;26;20021;-58
2024/04/13 07:59:19;;;;;;;0.10;0.10;;;;;;;18.34;86.63;100495.00;5453606;26;20014;-58
2024/04/13 08:01:48;;;;;;;0.10;0.10;;;;;;;19.08;82.67;100496.69;5454409;26;20309;-58
2024/04/13 08:04:15;;;;;;;0.10;0.10;;;;;;;18.24;84.68;100501.19;5442383;26;20022;-58
2024/04/13 08:06:43;;;;;;;0.00;0.00;;;;;;;18.60;86.84;100497.88;5454730;26;20031;-58
2024/04/13 08:09:10;;;;;;;0.00;0.00;;;;;;;18.11;89.75;100491.63;5452940;26;20062;-59
2024/04/13 08:11:38;;;;;;;0.00;0.00;;;;;;;17.28;93.48;100499.31;5450374;26;20439;-58
2024/04/13 08:14:07;;;;;;;0.00;0.00;;;;;;;19.62;83.50;100492.72;5451632;26;20007;-58
2024/04/13 08:16:41;;;;;;;0.03;0.03;;;;;;;20.81;75.15;100491.38;5454732;26;20017;-58
2024/04/13 08:19:07;;;;;;;0.08;0.08;;;;;;;18.64;80.93;100496.25;5465631;26;20089;-58
2024/04/13 08:21:36;;;;;;;0.00;0.00;;;;;;;19.74;81.50;100484.28;5454395;26;20007;-58
2024/04/13 08:24:03;;;;;;;0.00;0.00;;;;;;;20.50;77.11;100487.97;5450900;26;20003;-58
2024/04/13 08:26:32;;;;;;;0.00;0.00;;;;;;;21.50;71.00;100486.91;5463281;26;20049;-58
2024/04/13 08:28:58;;;;;;;0.00;0.00;;;;;;;18.70;83.39;100493.28;5455735;26;20446;-59
2024/04/13 08:31:27;;;;;;;0.00;0.00;;;;;;;19.04;84.95;100482.00;5458421;26;20010;-58
2024/04/13 08:33:56;;;;;;;0.00;0.00;;;;;;;19.09;83.03;100476.59;5459634;26;20021;-59
2024/04/13 08:36:25;;;;;;;0.10;0.10;;;;;;;19.63;79.64;100475.28;5457655;26;20330;-58
2024/04/13 08:38:51;;;;;;;0.00;0.00;;;;;;;18.71;86.48;100480.53;5459700;26;20223;-58
2024/04/13 08:41:25;;;;;;;0.00;0.00;;;;;;;19.96;79.06;100476.66;5452108;26;20083;-58
2024/04/13 08:43:52;;;;;;;0.00;0.00;;;;;;;19.71;82.95;100468.50;5456276;26;20809;-58
2024/04/13 08:46:20;;;;;;;0.00;0.00;;;;;;;19.71;80.47;100468.50;5455953;26;20015;-58
2024/04/13 08:48:49;;;;;;;0.00;0.00;;;;;;;19.02;83.84;100470.63;5449741;26;20017;-58
2024/04/13 08:51:21;;;;;;;0.00;0.00;;;;;;;19.91;84.37;100463.03;5458644;26;20017;-59
2024/04/13 08:53:47;;;;;;;0.00;0.00;;;;;;;19.63;84.46;100455.44;5446019;26;20014;-58
2024/04/13 08:56:17;;;;;;;0.10;0.10;;;;;;;20.28;77.95;100455.63;5461555;26;20099;-58
2024/04/13 08:58:45;;;;;;;0.00;0.00;;;;;;;19.53;79.64;100473.38;5443498;26;20002;-59
2024/04/13 09:01:16;;;;;;;0.00;0.00;;;;;;;18.44;90.21;100459.78;5444603;26;20022;-58
2024/04/13 09:03:43;;;;;;;0.00;0.00;;;;;;;19.88;81.53;100460.88;5449249;26;20029;-58
2024/04/13 09:06:12;;;;;;;0.00;0.00;;;;;;;19.67;81.80;100456.50;5428405;26;20015;-58
2024/04/13 09:08:41;;;;;;;0.00;0.00;;;;;;;19.12;86.28;100457.03;5454859;26;20087;-58
2024/04/13 09:11:11;;;;;;;0.00;0.00;;;;;;;18.50;88.23;100457.91;5465015;26;20324;-59
2024/04/13 09:13:38;;;;;;;0.10;0.10;;;;;;;18.97;84.76;100454.31;5452907;26;20003;-58
2024/04/13 09:16:08;;;;;;;0.08;0.08;;;;;;;18.88;87.77;100447.75;5451671;26;20063;-58
2024/04/13 09:18:34;;;;;;;0.00;0.00;;;;;;;20.71;77.23;100443.22;5459474;26;19998;-58
2024/04/13 09:21:07;;;;;;;0.10;0.10;;;;;;;19.45;80.41;100444.03;5446332;26;20016;-58
2024/04/13 09:23:33;;;;;;;0.00;0.00;;;;;;;19.23;83.29;100447.00;5453003;26;20051;-58
2024/04/13 09:26:08;;;;;;;0.08;0.08;;;;;;;20.59;75.95;100442.72;5493159;26;20006;-58
2024/04/13 09:28:38;;;;;;;0.00;0.00;;;;;;;20.70;77.97;100446.25;5446806;26;20440;-59
2024/04/13 09:31:07;;;;;;;0.03;0.03;;;;;;;19.39;83.82;100445.09;5458825;26;20014;-58
2024/04/13 09:33:34;;;;;;;0.10;0.10;;;;;;;19.27;85.43;100441.81;5461022;26;20083;-58
2024/04/13 09:36:03;;;;;;;0.10;0.10;;;;;;;19.61;83.85;100436.66;5443632;26;20006;-58
2024/04/13 09:38:29;;;;;;;0.08;0.08;;;;;;;20.10;79.85;100429.84;5453783;26;20002;-58
2024/04/13 09:40:59;;;;;;;0.10;0.10;;;;;;;20.34;78.87;100428.09;5462144;26;20010;-59
2024/04/13 09:43:30;;;;;;;0.00;0.00;;;;;;;20.19;78.56;100436.31;5457568;26;20006;-58
2024/04/13 09:46:00;;;;;;;0.00;0.00;;;;;;;20.24;79.92;100430.84;5454077;26;20006;-58
2024/04/13 09:48:27;;;;;;;0.00;0.00;;;;;;;20.17;79.05;100428.44;5441794;26;20003;-58
2024/04/13 09:50:55;;;;;;;0.00;0.00;;;;;;;20.35;80.63;100427.00;5451223;26;20036;-58
2024/04/13 09:53:21;;;;;;;0.00;0.00;;;;;;;20.42;77.20;100422.09;5453029;26;20002;-58
2024/04/13 09:55:50;;;;;;;0.03;0.03;;;;;;;19.94;81.19;100418.16;5450560;26;20912;-58
2024/04/13 09:58:18;;;;;;;0.00;0.00;;;;;;;21.49;72.73;100417.06;5451055;26;20083;-58
2024/04/13 10:00:50;;;;;;;0.00;0.00;;;;;;;21.44;73.29;100417.13;5448347;26;20006;-58
2024/04/13 10:03:16;;;;;;;0.00;0.00;;;;;;;21.64;71.42;100411.50;5463377;26;20078;-59
2024/04/13 10:05:46;;;;;;;0.00;0.00;;;;;;;22.03;71.17;100410.53;5471221;26;20436;-58
2024/04/13 10:08:12;;;;;;;0.00;0.00;;;;;;;21.84;70.09;100405.03;5452872;26;20076;-57
2024/04/13 10:10:42;;;;;;;0.00;0.00;;;;;;;22.30;67.50;100407.25;5461765;26;20547;-58
2024/04/13 10:13:12;;;;;;;0.00;0.00;;;;;;;21.49;71.08;100400.72;5458835;26;20599;-58
2024/04/13 10:15:40;;;;;;;;;;;;;;;21.54;69.47;100408.84;5454006;26;19994;-58
2024/04/13 10:18:09;;;;;;;0.10;0.10;;;;;;;21.89;68.25;100401.41;5458640;26;19932;-60
2024/04/13 10:20:38;;;;;;;0.00;0.00;;;;;;;20.51;75.64;100399.72;5459976;26;20010;-57
2024/04/13 10:23:07;;;;;;;0.00;0.00;;;;;;;21.85;69.75;100387.56;5441791;26;20382;-57
2024/04/13 10:25:36;;;;;;;0.00;0.00;;;;;;;22.17;68.13;100397.03;5451587;26;19999;-57
2024/04/13 10:28:06;;;;;;;0.00;0.00;;;;;;;22.29;65.98;100393.88;5460443;26;20021;-57
2024/04/13 10:30:45;;;;;;;0.00;0.00;;;;;;;22.64;65.45;100384.44;5465046;26;20006;-57
2024/04/13 10:33:24;;;;;;;0.00;0.00;;;;;;;23.88;61.30;100384.06;5456864;26;20025;-57
2024/04/13 10:35:57;;;;;;;0.00;0.00;;;;;;;23.69;59.36;100382.19;5441351;26;19999;-58
2024/04/13 10:38:23;;;;;;;0.00;0.00;;;;;;;22.45;64.25;100381.69;5459017;26;20044;-57
2024/04/13 10:40:52;;;;;;;0.00;0.00;;;;;;;23.02;62.77;100385.25;5460092;26;20006;-58
2024/04/13 10:43:19;;;;;;;0.00;0.00;;;;;;;22.57;61.26;100373.06;5448601;26;20003;-57
2024/04/13 10:45:56;;;;;;;0.00;0.00;;;;;;;22.98;60.77;100367.00;5452935;26;20086;-57
2024/04/13 10:48:25;;;;;;;0.00;0.00;;;;;;;22.49;63.00;100355.41;5450579;26;20002;-58
2024/04/13 10:50:55;;;;;;;0.00;0.00;;;;;;;21.84;64.53;100355.09;5461204;26;20002;-57
2024/04/13 10:53:23;;;;;;;0.00;0.00;;;;;;;22.43;62.92;100345.66;5459193;26;20828;-57
2024/04/13 10:55:52;;;;;;;0.00;0.00;;;;;;;23.75;58.44;100352.03;5454710;26;20003;-57
2024/04/13 10:58:19;;;;;;;0.00;0.00;;;;;;;22.39;62.27;100356.34;5447254;26;19998;-58
2024/04/13 11:00:49;;;;;;;0.00;0.00;;;;;;;23.69;58.91;100351.28;5458094;26;20393;-57
2024/04/13 11:03:16;;;;;;;0.00;0.00;;;;;;;23.25;58.85;100358.09;5451375;26;20006;-58
2024/04/13 11:05:47;;;;;;;0.00;0.00;;;;;;;22.13;61.07;100355.81;5458223;26;20017;-57
2024/04/13 11:08:13;;;;;;;0.00;0.00;;;;;;;23.10;59.70;100353.69;5451075;26;20007;-57
2024/04/13 11:10:42;;;;;;;0.00;0.00;;;;;;;23.47;56.75;100341.81;5452968;26;20021;-57
2024/04/13 11:13:09;;;;;;;0.00;0.00;;;;;;;23.25;56.58;100338.94;5453756;26;20021;-57
2024/04/13 11:15:37;;;;;;;0.00;0.00;;;;;;;23.29;57.04;100334.50;5459971;26;20029;-57
2024/04/13 11:18:04;;;;;;;0.00;0.00;;;;;;;24.02;55.22;100326.56;5450846;26;20015;-57
2024/04/13 11:20:34;;;;;;;0.00;0.00;;;;;;;22.67;58.21;100323.72;5461685;26;20002;-57
2024/04/13 11:23:03;;;;;;;0.00;0.00;;;;;;;22.70;58.15;100316.84;5453590;26;20056;-58
2024/04/13 11:25:32;;;;;;;0.00;0.00;;;;;;;23.36;56.64;100312.22;5450471;26;20737;-58
2024/04/13 11:28:00;;;;;;;0.00;0.00;;;;;;;23.60;56.31;100306.56;5453378;26;19998;-57